Time;durP1;ratioP1;P1;durP2;ratioP2;P2;SDS_P1;SDS_P2;PMS_P1;PMS_P2;Temp;Humidity;BMP_temperature;BMP_pressure;BME280_temperature;BME280_humidity;BME280_pressure;Samples;Min_cycle;Max_cycle;Signal;HPM_P1;HPM_P2
2022/04/24 00:00:04;;;;;;;;;;;;;;;7.66;100.00;93922.38;1031426;28;19917;-70
2022/04/24 00:00:34;;;;;;;;;;;;;;;7.65;100.00;93924.22;1027466;28;20478;-70
2022/04/24 00:01:04;;;;;;;;;;;;;;;7.65;100.00;93913.75;1027476;28;19941;-71
2022/04/24 00:01:35;;;;;;;;;;;;;;;7.65;100.00;93916.38;1028308;28;19911;-70
2022/04/24 00:02:05;;;;;;;;;;;;;;;7.63;100.00;93905.44;1027617;28;19922;-71
2022/04/24 00:02:35;;;;;;;;;;;;;;;7.63;100.00;93907.28;1031255;28;19906;-71
2022/04/24 00:03:06;;;;;;;;;;;;;;;7.63;100.00;93902.81;1027310;28;19969;-70
2022/04/24 00:03:36;;;;;;;;;;;;;;;7.63;100.00;93907.28;1023271;28;20372;-71
2022/04/24 00:04:07;;;;;;;;;;;;;;;7.62;100.00;93903.91;1027407;28;20643;-71
2022/04/24 00:04:37;;;;;;;;;;;;;;;7.62;100.00;93903.91;1023489;28;19914;-72
2022/04/24 00:05:08;;;;;;;;;;;;;;;7.63;100.00;93902.06;1027301;28;19906;-70
2022/04/24 00:05:41;;;;;;;;;;;;;;;7.63;100.00;93897.59;1031136;28;20287;-71
2022/04/24 00:06:11;;;;;;;;;;;;;;;7.63;100.00;93902.06;1027892;28;19902;-70
2022/04/24 00:06:41;;;;;;;;;;;;;;;7.62;100.00;93901.28;1030754;28;19917;-70
2022/04/24 00:07:11;;;;;;;;;;;;;;;7.63;100.00;93902.81;1030960;28;19914;-72
2022/04/24 00:07:45;;;;;;;;;;;;;;;7.64;100.00;93901.75;1027410;28;19914;-71
2022/04/24 00:08:15;;;;;;;;;;;;;;;7.67;100.00;93908.25;1027219;28;19907;-71
2022/04/24 00:08:45;;;;;;;;;;;;;;;7.67;100.00;93908.25;1027359;28;19906;-71
2022/04/24 00:09:16;;;;;;;;;;;;;;;7.68;100.00;93907.97;1023711;28;20005;-71
2022/04/24 00:09:47;;;;;;;;;;;;;;;7.69;100.00;93906.91;1027233;28;19922;-72
2022/04/24 00:10:17;;;;;;;;;;;;;;;7.70;100.00;93908.44;1022469;28;19918;-72
2022/04/24 00:10:47;;;;;;;;;;;;;;;7.71;100.00;93914.44;1027140;28;19926;-71
2022/04/24 00:11:19;;;;;;;;;;;;;;;7.71;100.00;93914.44;1027357;28;19918;-71
2022/04/24 00:11:49;;;;;;;;;;;;;;;7.72;100.00;93914.16;1027099;28;19941;-70
2022/04/24 00:12:22;;;;;;;;;;;;;;;7.73;100.00;93904.47;1029121;28;20004;-71
2022/04/24 00:12:52;;;;;;;;;;;;;;;7.74;100.00;93909.41;1027517;28;19922;-71
2022/04/24 00:13:23;;;;;;;;;;;;;;;7.75;100.00;93900.53;1023410;29;19914;-70
2022/04/24 00:13:54;;;;;;;;;;;;;;;7.75;100.00;93903.13;1023482;28;19910;-70
2022/04/24 00:14:24;;;;;;;;;;;;;;;7.75;100.00;93905.75;1027493;28;20467;-70
2022/04/24 00:14:54;;;;;;;;;;;;;;;7.75;100.00;93910.97;1023430;28;19918;-72
2022/04/24 00:15:25;;;;;;;;;;;;;;;7.76;100.00;93902.06;1027522;28;19914;-70
2022/04/24 00:15:55;;;;;;;;;;;;;;;7.76;100.00;93907.28;1023114;28;20327;-71
2022/04/24 00:16:25;;;;;;;;;;;;;;;7.78;100.00;93897.34;1027232;28;19918;-70
2022/04/24 00:16:56;;;;;;;;;;;;;;;7.76;100.00;93890.84;1022497;29;19915;-70
2022/04/24 00:17:26;;;;;;;;;;;;;;;7.78;100.00;93892.13;1025022;28;19919;-70
2022/04/24 00:17:59;;;;;;;;;;;;;;;7.76;100.00;93888.25;1027715;28;19922;-71
2022/04/24 00:18:29;;;;;;;;;;;;;;;7.77;100.00;93890.56;1027975;28;20017;-71
2022/04/24 00:19:00;;;;;;;;;;;;;;;7.75;100.00;93887.47;1028066;28;19918;-71
2022/04/24 00:19:30;;;;;;;;;;;;;;;7.74;100.00;93883.28;1031717;28;20372;-72
2022/04/24 00:20:00;;;;;;;;;;;;;;;7.74;100.00;93888.50;1021522;28;19982;-71
2022/04/24 00:20:31;;;;;;;;;;;;;;;7.74;100.00;93882.53;1023193;29;19918;-71
2022/04/24 00:21:01;;;;;;;;;;;;;;;7.74;100.00;93893.75;1023689;28;20428;-71
2022/04/24 00:21:31;;;;;;;;;;;;;;;7.73;100.00;93891.44;1023175;28;20667;-71
2022/04/24 00:22:02;;;;;;;;;;;;;;;7.73;100.00;93894.81;1027294;28;19937;-71
2022/04/24 00:22:33;;;;;;;;;;;;;;;7.73;100.00;93900.03;1023194;28;19981;-71
2022/04/24 00:23:03;;;;;;;;;;;;;;;7.73;100.00;93897.41;1023242;28;19962;-71
2022/04/24 00:23:33;;;;;;;;;;;;;;;7.73;100.00;93901.88;1019298;29;20001;-71
2022/04/24 00:24:04;;;;;;;;;;;;;;;7.72;100.00;93903.72;1023774;28;19925;-72
2022/04/24 00:24:34;;;;;;;;;;;;;;;7.73;100.00;93909.69;1027130;28;19922;-72
2022/04/24 00:25:05;;;;;;;;;;;;;;;7.73;100.00;93915.69;1023757;28;19919;-71
2022/04/24 00:25:35;;;;;;;;;;;;;;;7.74;100.00;93913.84;1025577;28;19927;-71
2022/04/24 00:26:06;;;;;;;;;;;;;;;7.74;100.00;93913.84;1027031;28;20372;-70
2022/04/24 00:26:36;;;;;;;;;;;;;;;7.74;100.00;93916.47;1029710;28;19925;-72
2022/04/24 00:27:08;;;;;;;;;;;;;;;7.75;100.00;93918.81;1030549;28;19950;-72
2022/04/24 00:27:38;;;;;;;;;;;;;;;7.75;100.00;93913.56;1030082;28;20013;-71
2022/04/24 00:28:08;;;;;;;;;;;;;;;7.76;100.00;93919.56;1031496;28;19959;-71
2022/04/24 00:28:38;;;;;;;;;;;;;;;7.77;100.00;93916.66;1031055;28;20455;-72
2022/04/24 00:29:09;;;;;;;;;;;;;;;7.77;100.00;93913.28;1031042;28;19969;-71
2022/04/24 00:29:43;;;;;;;;;;;;;;;7.77;100.00;93908.81;1028378;28;19922;-71
2022/04/24 00:30:13;;;;;;;;;;;;;;;7.77;100.00;93908.81;1023263;29;19914;-72
2022/04/24 00:30:43;;;;;;;;;;;;;;;7.76;100.00;93898.69;1019264;29;19967;-71
2022/04/24 00:31:13;;;;;;;;;;;;;;;7.76;100.00;93902.06;1019534;29;19937;-71
2022/04/24 00:31:44;;;;;;;;;;;;;;;7.77;100.00;93903.59;1023286;29;19921;-71
2022/04/24 00:32:14;;;;;;;;;;;;;;;7.76;100.00;93893.47;1027502;28;19906;-71
2022/04/24 00:32:44;;;;;;;;;;;;;;;7.77;100.00;93897.63;1026980;28;19918;-71
2022/04/24 00:33:15;;;;;;;;;;;;;;;7.79;100.00;93898.09;1027364;28;19941;-71
2022/04/24 00:33:45;;;;;;;;;;;;;;;7.78;100.00;93892.13;1027223;28;19961;-72
2022/04/24 00:34:15;;;;;;;;;;;;;;;7.79;100.00;93896.25;1023183;28;19953;-72
2022/04/24 00:34:46;;;;;;;;;;;;;;;7.79;100.00;93895.50;1013725;29;20391;-71
2022/04/24 00:35:16;;;;;;;;;;;;;;;7.78;100.00;93901.78;1019169;29;19962;-71
2022/04/24 00:35:46;;;;;;;;;;;;;;;7.77;100.00;93893.16;1019334;29;19915;-71
2022/04/24 00:36:16;;;;;;;;;;;;;;;7.79;100.00;93891.03;1023493;28;19989;-72
2022/04/24 00:36:47;;;;;;;;;;;;;;;7.79;100.00;93890.28;1028422;28;19914;-71
2022/04/24 00:37:17;;;;;;;;;;;;;;;7.80;100.00;93881.38;1031489;28;19913;-70
2022/04/24 00:37:47;;;;;;;;;;;;;;;7.79;100.00;93879.84;1025870;28;19918;-71
2022/04/24 00:38:18;;;;;;;;;;;;;;;7.78;100.00;93881.69;1023275;28;19942;-71
2022/04/24 00:38:48;;;;;;;;;;;;;;;7.79;100.00;93878.00;1023244;29;19907;-71
2022/04/24 00:39:18;;;;;;;;;;;;;;;7.79;100.00;93874.63;1019389;29;20284;-71
2022/04/24 00:39:49;;;;;;;;;;;;;;;7.78;100.00;93873.84;1027150;28;20053;-71
2022/04/24 00:40:19;;;;;;;;;;;;;;;7.79;100.00;93872.78;1027439;28;19910;-71
2022/04/24 00:40:49;;;;;;;;;;;;;;;7.80;100.00;93866.47;1027155;28;19914;-70
2022/04/24 00:41:19;;;;;;;;;;;;;;;7.80;100.00;93879.53;1027027;28;19976;-71
2022/04/24 00:41:50;;;;;;;;;;;;;;;7.79;100.00;93875.38;1023286;29;20291;-71
2022/04/24 00:42:20;;;;;;;;;;;;;;;7.79;100.00;93879.84;1023218;29;19938;-71
2022/04/24 00:42:51;;;;;;;;;;;;;;;7.80;100.00;93879.53;1020216;28;20610;-70
2022/04/24 00:43:21;;;;;;;;;;;;;;;7.81;100.00;93882.91;1021633;29;19911;-70
2022/04/24 00:43:55;;;;;;;;;;;;;;;7.80;100.00;93882.13;1023123;29;19906;-70
2022/04/24 00:44:26;;;;;;;;;;;;;;;7.83;100.00;93885.25;1023858;28;20311;-70
2022/04/24 00:44:56;;;;;;;;;;;;;;;7.82;100.00;93888.94;1027016;28;19910;-71
2022/04/24 00:45:27;;;;;;;;;;;;;;;7.82;100.00;93889.69;1027161;28;19942;-72
2022/04/24 00:46:07;;;;;;;;;;;;;;;7.83;100.00;93888.63;1023897;28;20551;-70
2022/04/24 00:46:43;;;;;;;;;;;;;;;7.86;100.00;93893.28;1027304;28;19909;-71
2022/04/24 00:47:17;;;;;;;;;;;;;;;7.88;100.00;93895.56;1029158;28;19929;-71
2022/04/24 00:47:47;;;;;;;;;;;;;;;7.87;100.00;93896.66;1031312;28;20415;-71
2022/04/24 00:48:18;;;;;;;;;;;;;;;7.88;100.00;93892.97;1028613;28;19942;-71
2022/04/24 00:48:48;;;;;;;;;;;;;;;7.64;100.00;93854.00;1027172;28;19902;-72
2022/04/24 00:49:21;;;;;;;;;;;;;;;7.90;100.00;93890.84;1023183;29;19903;-71
2022/04/24 00:49:52;;;;;;;;;;;;;;;7.90;100.00;93885.63;1023553;28;19988;-70
2022/04/24 00:50:22;;;;;;;;;;;;;;;7.90;100.00;93880.41;1027772;28;19977;-71
2022/04/24 00:50:52;;;;;;;;;;;;;;;7.93;100.00;93887.66;1030773;28;19956;-71
2022/04/24 00:51:22;;;;;;;;;;;;;;;7.92;100.00;93884.28;1030996;28;19921;-71
2022/04/24 00:51:53;;;;;;;;;;;;;;;7.91;100.00;93893.16;1031148;28;19913;-71
2022/04/24 00:52:23;;;;;;;;;;;;;;;7.88;100.00;93883.31;1023180;29;19945;-71
2022/04/24 00:52:53;;;;;;;;;;;;;;;7.88;100.00;93885.94;1022164;29;20008;-70
2022/04/24 00:53:24;;;;;;;;;;;;;;;7.90;100.00;93885.63;1019092;29;19974;-71
2022/04/24 00:53:54;;;;;;;;;;;;;;;7.90;100.00;93888.25;1019102;29;19929;-71
2022/04/24 00:54:25;;;;;;;;;;;;;;;7.90;100.00;93886.41;1023385;29;19914;-71
2022/04/24 00:54:55;;;;;;;;;;;;;;;7.90;100.00;93883.00;1018965;29;20441;-71
2022/04/24 00:55:25;;;;;;;;;;;;;;;7.92;100.00;93892.13;1019362;29;20002;-71
2022/04/24 00:55:58;;;;;;;;;;;;;;;7.93;100.00;93895.50;1019171;29;20351;-70
2022/04/24 00:56:31;;;;;;;;;;;;;;;7.92;100.00;93891.34;1019626;29;19911;-71
2022/04/24 00:57:01;;;;;;;;;;;;;;;7.93;100.00;93890.28;1015202;29;19991;-71
2022/04/24 00:57:31;;;;;;;;;;;;;;;7.91;100.00;93887.16;1019755;29;19967;-71
2022/04/24 00:58:02;;;;;;;;;;;;;;;7.92;100.00;93893.97;1020050;28;20006;-70
2022/04/24 00:58:32;;;;;;;;;;;;;;;7.92;100.00;93883.50;1022896;29;19914;-70
2022/04/24 00:59:04;;;;;;;;;;;;;;;7.92;100.00;93883.50;1017768;29;19919;-71
2022/04/24 00:59:34;;;;;;;;;;;;;;;7.94;100.00;93881.38;1015689;29;19915;-72
2022/04/24 01:00:05;;;;;;;;;;;;;;;7.95;100.00;93881.09;1023190;28;19918;-71
2022/04/24 01:00:36;;;;;;;;;;;;;;;7.93;100.00;93877.97;1031288;28;19917;-71
2022/04/24 01:01:07;;;;;;;;;;;;;;;7.94;100.00;93876.13;1027478;28;19918;-70
2022/04/24 01:01:37;;;;;;;;;;;;;;;7.90;100.00;93875.94;1026098;28;19922;-71
2022/04/24 01:02:08;;;;;;;;;;;;;;;7.91;100.00;93871.50;1019216;29;19919;-70
2022/04/24 01:02:38;;;;;;;;;;;;;;;7.92;100.00;93873.06;1019285;29;19926;-71
2022/04/24 01:03:11;;;;;;;;;;;;;;;7.90;100.00;93868.13;1023098;28;19914;-70
2022/04/24 01:03:41;;;;;;;;;;;;;;;7.90;100.00;93865.50;1031424;28;19914;-70
2022/04/24 01:04:12;;;;;;;;;;;;;;;7.90;100.00;93862.91;1031113;28;19920;-71
2022/04/24 01:04:43;;;;;;;;;;;;;;;7.90;100.00;93854.28;1031434;28;20008;-71
2022/04/24 01:05:16;;;;;;;;;;;;;;;7.87;100.00;93850.41;1022953;28;19914;-70
2022/04/24 01:05:46;;;;;;;;;;;;;;;7.88;100.00;93851.19;1015610;29;20009;-70
2022/04/24 01:06:16;;;;;;;;;;;;;;;7.86;100.00;93853.34;1015157;29;20588;-70
2022/04/24 01:06:46;;;;;;;;;;;;;;;7.87;100.00;93849.66;1014453;29;19919;-71
2022/04/24 01:07:17;;;;;;;;;;;;;;;7.88;100.00;93851.19;1018976;29;19951;-71
2022/04/24 01:07:47;;;;;;;;;;;;;;;7.87;100.00;93854.88;1023336;29;20005;-71
2022/04/24 01:08:17;;;;;;;;;;;;;;;7.86;100.00;93845.50;1026935;28;19949;-71
2022/04/24 01:08:48;;;;;;;;;;;;;;;7.86;100.00;93848.13;1027246;28;20420;-70
2022/04/24 01:09:19;;;;;;;;;;;;;;;7.86;100.00;93837.66;1018989;29;19970;-71
2022/04/24 01:09:49;;;;;;;;;;;;;;;7.85;100.00;93841.34;1019096;29;19978;-70
2022/04/24 01:10:19;;;;;;;;;;;;;;;7.85;100.00;93839.50;1022248;28;20013;-71
2022/04/24 01:10:49;;;;;;;;;;;;;;;7.85;100.00;93836.91;1027208;28;20499;-71
2022/04/24 01:11:20;;;;;;;;;;;;;;;7.83;100.00;93843.47;1035191;28;19976;-71
2022/04/24 01:11:56;;;;;;;;;;;;;;;7.80;100.00;93837.75;1026880;28;19918;-71
2022/04/24 01:12:26;;;;;;;;;;;;;;;7.80;100.00;93839.59;1022950;28;19922;-70
2022/04/24 01:12:57;;;;;;;;;;;;;;;7.79;100.00;93832.84;1023110;29;19918;-72
2022/04/24 01:13:27;;;;;;;;;;;;;;;7.78;100.00;93831.31;1020767;28;20408;-71
2022/04/24 01:13:57;;;;;;;;;;;;;;;7.77;100.00;93838.34;1022766;28;19918;-72
2022/04/24 01:14:28;;;;;;;;;;;;;;;7.78;100.00;93826.09;1023089;29;19914;-70
2022/04/24 01:14:58;;;;;;;;;;;;;;;7.79;100.00;93827.63;1023200;29;20165;-71
2022/04/24 01:15:29;;;;;;;;;;;;;;;7.80;100.00;93829.91;1019287;29;19919;-71
2022/04/24 01:15:59;;;;;;;;;;;;;;;7.69;100.00;93809.53;1023234;28;19940;-71
2022/04/24 01:16:29;;;;;;;;;;;;;;;7.80;100.00;93827.31;1027026;28;19945;-71
2022/04/24 01:17:00;;;;;;;;;;;;;;;7.79;100.00;93823.16;1022578;28;19976;-71
2022/04/24 01:17:30;;;;;;;;;;;;;;;7.80;100.00;93827.31;1029240;28;19916;-71
2022/04/24 01:18:01;;;;;;;;;;;;;;;7.80;100.00;93823.94;1027042;28;19914;-71
2022/04/24 01:18:31;;;;;;;;;;;;;;;7.79;100.00;93833.59;1027087;28;19957;-71
2022/04/24 01:19:02;;;;;;;;;;;;;;;7.81;100.00;93822.84;1025998;28;20638;-71
2022/04/24 01:19:32;;;;;;;;;;;;;;;7.80;100.00;93823.94;1019199;29;19946;-71
2022/04/24 01:20:02;;;;;;;;;;;;;;;7.79;100.00;93825.00;1015239;29;19974;-71
2022/04/24 01:20:34;;;;;;;;;;;;;;;7.78;100.00;93832.06;1014998;29;19915;-72
2022/04/24 01:21:10;;;;;;;;;;;;;;;7.79;100.00;93828.38;1019048;29;19923;-71
2022/04/24 01:21:41;;;;;;;;;;;;;;;7.78;100.00;93821.63;1024195;28;19933;-71
2022/04/24 01:22:11;;;;;;;;;;;;;;;7.77;100.00;93830.50;1027893;28;20299;-71
2022/04/24 01:22:41;;;;;;;;;;;;;;;7.74;100.00;93830.31;1027027;28;19950;-71
2022/04/24 01:23:12;;;;;;;;;;;;;;;7.74;100.00;93825.88;1023109;28;20396;-71
2022/04/24 01:23:43;;;;;;;;;;;;;;;7.74;100.00;93825.88;1023212;29;19914;-71
2022/04/24 01:24:16;;;;;;;;;;;;;;;7.74;100.00;93817.25;1021188;28;20391;-70
2022/04/24 01:24:47;;;;;;;;;;;;;;;7.71;100.00;93815.22;1023753;28;20324;-71
2022/04/24 01:25:17;;;;;;;;;;;;;;;7.70;100.00;93817.06;1023914;29;20423;-72
2022/04/24 01:25:47;;;;;;;;;;;;;;;7.70;100.00;93813.69;1022927;28;19923;-71
2022/04/24 01:26:18;;;;;;;;;;;;;;;7.70;100.00;93818.91;1013914;29;19966;-69
2022/04/24 01:26:48;;;;;;;;;;;;;;;7.69;100.00;93812.94;1014670;29;20006;-69
2022/04/24 01:27:19;;;;;;;;;;;;;;;7.69;100.00;93812.94;1015214;29;20015;-71
2022/04/24 01:27:52;;;;;;;;;;;;;;;7.71;100.00;93820.44;1018895;28;19919;-71
2022/04/24 01:28:22;;;;;;;;;;;;;;;7.69;100.00;93812.16;1019163;29;19958;-72
2022/04/24 01:28:53;;;;;;;;;;;;;;;7.67;100.00;93825.47;1019265;29;20001;-71
2022/04/24 01:29:23;;;;;;;;;;;;;;;7.69;100.00;93822.59;1019132;28;20393;-71
2022/04/24 01:29:53;;;;;;;;;;;;;;;7.69;100.00;93820.00;1022949;28;20538;-71
2022/04/24 01:30:24;;;;;;;;;;;;;;;7.69;100.00;93818.16;1027089;28;19914;-71
2022/04/24 01:30:54;;;;;;;;;;;;;;;7.73;100.00;93819.09;1022736;28;20375;-70
2022/04/24 01:31:24;;;;;;;;;;;;;;;7.75;100.00;93814.38;1019093;29;19958;-71
2022/04/24 01:31:55;;;;;;;;;;;;;;;7.74;100.00;93819.88;1015160;29;20417;-72
2022/04/24 01:32:25;;;;;;;;;;;;;;;7.73;100.00;93826.94;1019253;29;19918;-71
2022/04/24 01:32:55;;;;;;;;;;;;;;;7.71;100.00;93826.47;1022126;28;19962;-70
2022/04/24 01:33:27;;;;;;;;;;;;;;;7.70;100.00;93824.13;1031264;28;19916;-70
2022/04/24 01:33:57;;;;;;;;;;;;;;;7.70;100.00;93824.13;1026749;28;19954;-71
2022/04/24 01:34:27;;;;;;;;;;;;;;;7.71;100.00;93831.69;1019221;29;19911;-72
2022/04/24 01:34:58;;;;;;;;;;;;;;;7.72;100.00;93825.41;1021338;29;19951;-70
2022/04/24 01:35:28;;;;;;;;;;;;;;;7.72;100.00;93822.00;1023023;29;20418;-71
2022/04/24 01:35:59;;;;;;;;;;;;;;;7.72;100.00;93829.84;1026994;28;19910;-71
2022/04/24 01:36:29;;;;;;;;;;;;;;;7.71;100.00;93831.69;1027260;28;19902;-71
2022/04/24 01:36:59;;;;;;;;;;;;;;;7.72;100.00;93822.00;1022267;29;20392;-71
2022/04/24 01:37:30;;;;;;;;;;;;;;;7.73;100.00;93829.53;1022977;28;19910;-72
2022/04/24 01:38:00;;;;;;;;;;;;;;;7.73;100.00;93828.78;1026795;28;19916;-72
2022/04/24 01:38:30;;;;;;;;;;;;;;;7.70;100.00;93824.91;1030911;28;20315;-71
2022/04/24 01:39:01;;;;;;;;;;;;;;;7.70;100.00;93824.13;1031032;28;19910;-71
2022/04/24 01:39:31;;;;;;;;;;;;;;;7.69;100.00;93831.19;1026710;28;19988;-70
2022/04/24 01:40:01;;;;;;;;;;;;;;;7.68;100.00;93827.06;1026934;28;19945;-71
2022/04/24 01:40:32;;;;;;;;;;;;;;;7.68;100.00;93827.06;1023187;29;19951;-71
2022/04/24 01:41:02;;;;;;;;;;;;;;;7.70;100.00;93827.50;1022860;28;19906;-71
2022/04/24 01:41:32;;;;;;;;;;;;;;;7.69;100.00;93820.75;1026974;28;19907;-71
2022/04/24 01:42:03;;;;;;;;;;;;;;;7.68;100.00;93821.03;1027056;28;19976;-71
2022/04/24 01:42:33;;;;;;;;;;;;;;;7.69;100.00;93823.38;1026836;28;19940;-70
2022/04/24 01:43:06;;;;;;;;;;;;;;;7.69;100.00;93823.38;1026545;28;20013;-71
2022/04/24 01:43:36;;;;;;;;;;;;;;;7.73;100.00;93828.78;1025524;28;19910;-72
2022/04/24 01:44:07;;;;;;;;;;;;;;;7.71;100.00;93831.69;1030960;28;19913;-70
2022/04/24 01:44:37;;;;;;;;;;;;;;;7.71;100.00;93818.63;1027421;28;19910;-72
2022/04/24 01:45:07;;;;;;;;;;;;;;;7.69;100.00;93825.22;1030929;28;20029;-71
2022/04/24 01:45:38;;;;;;;;;;;;;;;7.71;100.00;93825.69;1026983;28;19942;-71
2022/04/24 01:46:08;;;;;;;;;;;;;;;7.69;100.00;93827.81;1026849;28;19969;-70
2022/04/24 01:46:39;;;;;;;;;;;;;;;7.69;100.00;93828.59;1026983;28;19906;-69
2022/04/24 01:47:12;;;;;;;;;;;;;;;7.70;100.00;93830.13;1023219;28;19906;-70
2022/04/24 01:47:42;;;;;;;;;;;;;;;7.72;100.00;93817.56;1026929;28;19960;-71
2022/04/24 01:48:12;;;;;;;;;;;;;;;7.70;100.00;93826.75;1019056;28;19915;-71
2022/04/24 01:48:43;;;;;;;;;;;;;;;7.69;100.00;93818.16;1019827;29;20527;-71
2022/04/24 01:49:13;;;;;;;;;;;;;;;7.71;100.00;93836.13;1022823;29;20447;-71
2022/04/24 01:49:46;;;;;;;;;;;;;;;7.71;100.00;93829.09;1023647;28;19926;-71
2022/04/24 01:50:16;;;;;;;;;;;;;;;7.70;100.00;93826.75;1030938;28;20293;-70
2022/04/24 01:50:47;;;;;;;;;;;;;;;7.70;100.00;93832.72;1031322;28;19949;-72
2022/04/24 01:51:17;;;;;;;;;;;;;;;7.69;100.00;93825.97;1030224;28;19918;-71
2022/04/24 01:51:48;;;;;;;;;;;;;;;7.70;100.00;93834.56;1026923;28;20243;-70
2022/04/24 01:52:19;;;;;;;;;;;;;;;7.70;100.00;93831.97;1018900;29;19919;-71
2022/04/24 01:52:49;;;;;;;;;;;;;;;7.71;100.00;93834.31;1019075;29;19919;-71
2022/04/24 01:53:19;;;;;;;;;;;;;;;7.71;100.00;93830.91;1022049;28;20431;-71
2022/04/24 01:53:49;;;;;;;;;;;;;;;7.69;100.00;93831.19;1023624;28;19915;-69
2022/04/24 01:54:20;;;;;;;;;;;;;;;7.69;100.00;93835.66;1021779;29;20526;-70
2022/04/24 01:54:50;;;;;;;;;;;;;;;7.69;100.00;93833.81;1023397;28;19977;-69
2022/04/24 01:55:20;;;;;;;;;;;;;;;7.72;100.00;93837.69;1023937;29;19973;-71
2022/04/24 01:55:51;;;;;;;;;;;;;;;7.68;100.00;93837.50;1023650;29;19914;-71
2022/04/24 01:56:21;;;;;;;;;;;;;;;7.69;100.00;93839.03;1023870;28;19925;-71
2022/04/24 01:56:51;;;;;;;;;;;;;;;7.71;100.00;93829.09;1026944;28;20404;-69
2022/04/24 01:57:22;;;;;;;;;;;;;;;7.68;100.00;93829.66;1027491;28;19918;-71
2022/04/24 01:57:52;;;;;;;;;;;;;;;7.69;100.00;93833.03;1027498;28;19918;-71
2022/04/24 01:58:22;;;;;;;;;;;;;;;7.69;100.00;93828.59;1023176;28;20387;-71
2022/04/24 01:58:53;;;;;;;;;;;;;;;7.68;100.00;93827.06;1019612;29;20050;-72
2022/04/24 01:59:23;;;;;;;;;;;;;;;7.71;100.00;93831.69;1024026;28;19906;-71
2022/04/24 01:59:53;;;;;;;;;;;;;;;7.71;100.00;93831.69;1023574;28;19919;-70
2022/04/24 02:00:24;;;;;;;;;;;;;;;7.69;100.00;93828.59;1024209;29;19942;-71
2022/04/24 02:00:54;;;;;;;;;;;;;;;7.68;100.00;93829.66;1028349;28;19914;-72
2022/04/24 02:01:24;;;;;;;;;;;;;;;7.68;100.00;93828.88;1028351;28;19957;-71
2022/04/24 02:01:55;;;;;;;;;;;;;;;7.68;100.00;93832.28;1031881;28;19920;-71
2022/04/24 02:02:25;;;;;;;;;;;;;;;7.66;100.00;93831.78;1031841;28;19984;-71
2022/04/24 02:02:55;;;;;;;;;;;;;;;7.68;100.00;93837.50;1031902;28;20338;-71
2022/04/24 02:03:26;;;;;;;;;;;;;;;7.67;100.00;93830.69;1027855;28;19918;-70
2022/04/24 02:03:57;;;;;;;;;;;;;;;7.66;100.00;93829.16;1027871;28;19914;-72
2022/04/24 02:04:27;;;;;;;;;;;;;;;7.65;100.00;93825.03;1027730;28;20375;-71
2022/04/24 02:04:57;;;;;;;;;;;;;;;7.66;100.00;93821.34;1023768;28;19957;-71
2022/04/24 02:05:28;;;;;;;;;;;;;;;7.66;100.00;93821.34;1027662;28;19984;-70
2022/04/24 02:05:58;;;;;;;;;;;;;;;7.67;100.00;93829.94;1031381;28;19921;-71
2022/04/24 02:06:28;;;;;;;;;;;;;;;7.66;100.00;93821.34;1031658;28;19918;-72
2022/04/24 02:06:58;;;;;;;;;;;;;;;7.65;100.00;93819.81;1027248;28;20567;-72
2022/04/24 02:07:29;;;;;;;;;;;;;;;7.65;100.00;93827.63;1023917;29;20400;-70
2022/04/24 02:07:59;;;;;;;;;;;;;;;7.67;100.00;93817.66;1023774;28;19965;-71
2022/04/24 02:08:31;;;;;;;;;;;;;;;7.68;100.00;93813.19;1029969;28;19949;-69
2022/04/24 02:09:02;;;;;;;;;;;;;;;7.67;100.00;93817.66;1031836;28;20407;-71
2022/04/24 02:09:33;;;;;;;;;;;;;;;7.65;100.00;93817.19;1031571;28;19917;-71
2022/04/24 02:10:04;;;;;;;;;;;;;;;7.67;100.00;93817.66;1028793;28;19917;-71
2022/04/24 02:10:34;;;;;;;;;;;;;;;7.65;100.00;93801.53;1023318;29;19907;-71
2022/04/24 02:11:08;;;;;;;;;;;;;;;7.65;100.00;93803.38;1023787;29;20009;-71
2022/04/24 02:11:38;;;;;;;;;;;;;;;7.64;100.00;93805.19;1023948;28;19937;-71
2022/04/24 02:12:12;;;;;;;;;;;;;;;7.64;100.00;93812.25;1024095;28;19914;-69
2022/04/24 02:12:44;;;;;;;;;;;;;;;7.64;100.00;93814.84;1023654;28;20021;-71
2022/04/24 02:13:15;;;;;;;;;;;;;;;7.63;100.00;93811.47;1021563;28;19911;-71
2022/04/24 02:13:45;;;;;;;;;;;;;;;7.65;100.00;93819.81;1027956;28;20445;-71
2022/04/24 02:14:15;;;;;;;;;;;;;;;7.62;100.00;93811.78;1028038;28;19918;-71
2022/04/24 02:14:46;;;;;;;;;;;;;;;7.64;100.00;93807.78;1027614;28;19918;-71
2022/04/24 02:15:19;;;;;;;;;;;;;;;7.62;100.00;93815.16;1027681;28;19907;-71
2022/04/24 02:15:50;;;;;;;;;;;;;;;7.63;100.00;93816.69;1023718;28;19906;-70
2022/04/24 02:16:20;;;;;;;;;;;;;;;7.63;100.00;93819.31;1024192;28;20377;-71
2022/04/24 02:16:50;;;;;;;;;;;;;;;7.62;100.00;93820.38;1027170;28;19914;-70
2022/04/24 02:17:21;;;;;;;;;;;;;;;7.63;100.00;93823.75;1031792;28;19929;-71
2022/04/24 02:17:51;;;;;;;;;;;;;;;7.63;100.00;93819.31;1031615;28;19910;-70
2022/04/24 02:18:21;;;;;;;;;;;;;;;7.64;100.00;93820.84;1031964;28;19917;-71
2022/04/24 02:18:52;;;;;;;;;;;;;;;7.63;100.00;93816.69;1031516;28;20646;-71
2022/04/24 02:19:22;;;;;;;;;;;;;;;7.61;100.00;93820.66;1023519;28;19922;-70
2022/04/24 02:19:52;;;;;;;;;;;;;;;7.61;100.00;93824.03;1019705;29;19917;-71
2022/04/24 02:20:23;;;;;;;;;;;;;;;7.61;100.00;93831.84;1019855;29;19915;-71
2022/04/24 02:20:53;;;;;;;;;;;;;;;7.59;100.00;93839.22;1019563;28;19953;-72
2022/04/24 02:21:24;;;;;;;;;;;;;;;7.60;100.00;93830.31;1028034;28;19915;-72
2022/04/24 02:21:54;;;;;;;;;;;;;;;7.61;100.00;93825.88;1031546;28;19910;-71
2022/04/24 02:22:24;;;;;;;;;;;;;;;7.60;100.00;93830.31;1027611;28;19977;-71
2022/04/24 02:22:57;;;;;;;;;;;;;;;7.61;100.00;93831.09;1027564;28;19957;-70
2022/04/24 02:23:27;;;;;;;;;;;;;;;7.62;100.00;93830.03;1023784;29;19983;-70
2022/04/24 02:23:58;;;;;;;;;;;;;;;7.62;100.00;93832.66;1024142;28;20007;-71
2022/04/24 02:24:28;;;;;;;;;;;;;;;7.61;100.00;93831.84;1023786;28;19915;-71
2022/04/24 02:24:59;;;;;;;;;;;;;;;7.62;100.00;93836.03;1027560;28;20328;-71
2022/04/24 02:25:30;;;;;;;;;;;;;;;7.61;100.00;93834.47;1019701;29;19914;-68
2022/04/24 02:26:00;;;;;;;;;;;;;;;7.61;100.00;93837.06;1017998;29;20411;-70
2022/04/24 02:26:30;;;;;;;;;;;;;;;7.60;100.00;93835.53;1019644;29;19927;-70
2022/04/24 02:27:01;;;;;;;;;;;;;;;7.60;100.00;93840.75;1019290;29;19947;-71
2022/04/24 02:27:31;;;;;;;;;;;;;;;7.62;100.00;93836.03;1022503;28;19919;-71
2022/04/24 02:28:01;;;;;;;;;;;;;;;7.61;100.00;93834.47;1015954;29;20008;-70
2022/04/24 02:28:31;;;;;;;;;;;;;;;7.61;100.00;93831.09;1015786;29;20400;-71
2022/04/24 02:29:02;;;;;;;;;;;;;;;7.62;100.00;93832.66;1019814;29;19911;-71
2022/04/24 02:29:33;;;;;;;;;;;;;;;7.61;100.00;93829.25;1031508;28;19948;-70
2022/04/24 02:30:06;;;;;;;;;;;;;;;7.62;100.00;93841.25;1027583;28;19949;-72
2022/04/24 02:30:39;;;;;;;;;;;;;;;7.60;100.00;93835.53;1027900;28;20395;-71
2022/04/24 02:31:09;;;;;;;;;;;;;;;7.60;100.00;93837.38;1022493;28;19922;-69
2022/04/24 02:31:40;;;;;;;;;;;;;;;7.62;100.00;93835.28;1021144;28;19918;-71
2022/04/24 02:32:10;;;;;;;;;;;;;;;7.60;100.00;93840.75;1027531;28;19914;-71
2022/04/24 02:32:41;;;;;;;;;;;;;;;7.61;100.00;93833.69;1024918;28;19907;-71
2022/04/24 02:33:11;;;;;;;;;;;;;;;7.60;100.00;93835.53;1031578;28;19948;-70
2022/04/24 02:33:41;;;;;;;;;;;;;;;7.59;100.00;93831.41;1027661;28;19906;-71
2022/04/24 02:34:12;;;;;;;;;;;;;;;7.59;100.00;93830.63;1019654;29;19921;-71
2022/04/24 02:34:45;;;;;;;;;;;;;;;7.57;100.00;93831.66;1023588;28;19918;-71
2022/04/24 02:35:15;;;;;;;;;;;;;;;7.60;100.00;93834.78;1015629;29;19907;-71
2022/04/24 02:35:45;;;;;;;;;;;;;;;7.57;100.00;93836.13;1012264;29;20319;-71
2022/04/24 02:36:16;;;;;;;;;;;;;;;7.60;100.00;93840.75;1019529;29;19911;-72
2022/04/24 02:36:46;;;;;;;;;;;;;;;7.59;100.00;93839.22;1019109;29;19942;-71
2022/04/24 02:37:16;;;;;;;;;;;;;;;7.60;100.00;93840.75;1023444;28;20443;-72
2022/04/24 02:37:46;;;;;;;;;;;;;;;7.61;100.00;93839.69;1027410;28;19910;-71
2022/04/24 02:38:17;;;;;;;;;;;;;;;7.60;100.00;93837.38;1023440;29;19942;-71
2022/04/24 02:38:47;;;;;;;;;;;;;;;7.60;100.00;93835.53;1019686;29;19934;-71
2022/04/24 02:39:18;;;;;;;;;;;;;;;7.59;100.00;93849.66;1023511;29;20339;-72
2022/04/24 02:39:48;;;;;;;;;;;;;;;7.63;100.00;93848.00;1027324;28;19907;-72